Amberson, PA

1:52 AM EDT on July 04, 2015 (GMT -0400)
Upper Mifflin Township | | Change Station
CLOSE
Current Station
Personal Weather Station
Location: Newville, PA
Elevation: 659 ft
Nearby Weather Stations

Elev 659 ft 40.21 °N, 77.49 °W | Updated 6 seconds ago

Rain
Rain
66.7 °F
Feels Like 66.7 °F
N
3.1
Wind Variable Wind from South
Gusts 3.8 mph

Today
High -- | Low -- °F
--% Chance of Precip.
Yesterday
High -- | Low -- °F
Precip. -- in
5:46 AM 8:43 PM
Waning Gibbous, 94% visible
Pressure 29.94 in
Visibility 7.0 miles
Clouds Mostly Cloudy 3900 ft
Overcast 5000 ft
Dew Point 66 °F
Humidity 99%
Rainfall 0.15 in
Snow Depth Not available.
UV 0.0 out of 12
Pollen 3.00 out of 12
Air Quality Not available.
Flu Activity Not available.
SPECI KHGR 040516Z AUTO 18004KT 7SM -RA BKN039 OVC050 20/18 A2994 RMK AO2 P0003 T02000178

More Conditions Fewer Conditions

Pressure 29.94 in
Visibility 7.0 miles
Clouds Mostly Cloudy 3900 ft
Overcast 5000 ft
Dew Point 66 °F
Humidity 99%
Rainfall 0.15 in
Snow Depth Not available.
UV 0.0 out of 12
Pollen 3.00 out of 12
Air Quality Not available.
Flu Activity Not available.
SPECI KHGR 040516Z AUTO 18004KT 7SM -RA BKN039 OVC050 20/18 A2994 RMK AO2 P0003 T02000178

More Conditions Fewer Conditions

Nowcast | as of 11:48 PM EDT on July 3, 2015

Bands of showers will become more widespread across the Susquehanna valley by 2 am. Some of the showers will be on the heavy side. The showers are moving northeast at 25 mph.

×

10-Day Weather Forecast

×

Almanac

Astronomy

Jul. 04, 2015 Rise Set
Actual Time
Civil Twilight
Nautical Twilight
Astronomical Twilight
Moon
Length of Visible Light
Length of Day
Tomorrow will be .
, % of the Moon is Illuminated

Today's Extremes

State Highs State Lows

Community

WunderPhotos

Upload Photos

1,834,923 photos uploaded!

WunderBlogs® & News

Nearby

Air Quality

  Air Quality AQ Index Pollutant
Not available.

Snow Depth

Station Depth Elevation

Earthquake Activity

City Distance Mag. Time & Date
Minimum magnitude displayed is 2.5.

Coastal Water Temperatures

Place Temperature

Stations

Nearby Weather Stations

Station Location Temp. Windchill Dew Point Humidity Wind Precip. Elev Updated Type